createdAt,value
2022-09-25T00:01:32.675Z,11.83
2022-09-25T00:03:35.458Z,9.49
2022-09-25T00:05:40.425Z,11.76
2022-09-25T00:07:43.230Z,10.08
2022-09-25T00:09:46.083Z,11.87
2022-09-25T00:11:48.724Z,11.90
2022-09-25T00:13:52.004Z,11.94
2022-09-25T00:15:57.917Z,7.88
2022-09-25T00:18:00.552Z,11.98
2022-09-25T00:20:02.352Z,11.46
2022-09-25T00:22:06.394Z,11.72
2022-09-25T00:24:12.496Z,11.48
2022-09-25T00:26:16.895Z,11.27
2022-09-25T00:28:19.562Z,11.28
2022-09-25T00:30:22.596Z,11.41
2022-09-25T00:32:25.360Z,9.09
2022-09-25T00:34:28.037Z,11.48
2022-09-25T00:36:32.803Z,11.68
2022-09-25T00:38:38.382Z,7.54
2022-09-25T00:40:41.155Z,11.90
2022-09-25T00:42:44.478Z,11.98
2022-09-25T00:44:59.061Z,12.07
2022-09-25T00:47:01.877Z,11.44
2022-09-25T00:49:08.011Z,12.13
2022-09-25T00:51:10.739Z,12.19
2022-09-25T00:53:19.388Z,12.20
2022-09-25T00:55:24.403Z,12.20
2022-09-25T00:57:32.018Z,12.12
2022-09-25T00:59:39.923Z,12.14
2022-09-25T01:01:42.833Z,11.40
2022-09-25T01:03:46.429Z,12.01
2022-09-25T01:05:50.525Z,11.98
2022-09-25T01:07:54.184Z,11.95
2022-09-25T01:09:59.326Z,10.68
2022-09-25T01:12:04.406Z,11.81
2022-09-25T01:14:09.340Z,11.75
2022-09-25T01:16:17.206Z,11.69
2022-09-25T01:18:35.468Z,11.77
2022-09-25T01:20:54.359Z,11.71
2022-09-25T01:23:08.507Z,11.65
2022-09-25T01:25:17.954Z,11.64
2022-09-25T01:27:45.712Z,10.87
2022-09-25T01:29:57.673Z,11.50
2022-09-25T01:32:06.143Z,11.47
2022-09-25T01:34:15.884Z,11.48
2022-09-25T01:36:25.110Z,11.64
2022-09-25T01:38:34.191Z,11.73
2022-09-25T01:40:42.247Z,10.83
2022-09-25T01:42:50.380Z,11.57
2022-09-25T01:44:59.972Z,11.43
2022-09-25T01:47:09.427Z,11.52
2022-09-25T01:49:18.608Z,10.42
2022-09-25T01:51:25.546Z,7.85
2022-09-25T01:53:34.689Z,11.68
2022-09-25T01:55:44.583Z,11.48
2022-09-25T01:57:52.431Z,10.61
2022-09-25T02:00:02.749Z,11.75
2022-09-25T02:02:19.881Z,11.78
2022-09-25T02:04:26.875Z,11.71
2022-09-25T02:06:30.703Z,8.55
2022-09-25T02:08:36.982Z,11.83
2022-09-25T02:10:44.989Z,11.89
2022-09-25T02:12:52.559Z,11.82
2022-09-25T02:15:02.411Z,11.85
2022-09-25T02:17:10.243Z,5.47
2022-09-25T02:19:33.002Z,11.83
2022-09-25T02:21:43.873Z,11.41
2022-09-25T02:23:53.879Z,11.38
2022-09-25T02:26:01.055Z,11.85
2022-09-25T02:28:04.087Z,8.73
2022-09-25T02:30:11.512Z,11.89
2022-09-25T02:32:17.892Z,11.86
2022-09-25T02:34:21.066Z,11.90
2022-09-25T02:36:24.143Z,11.88
2022-09-25T02:38:27.003Z,11.88
2022-09-25T02:40:37.570Z,11.57
2022-09-25T02:42:48.591Z,11.69
2022-09-25T02:45:14.790Z,11.78
2022-09-25T02:47:33.061Z,11.51
2022-09-25T02:49:42.369Z,8.10
2022-09-25T02:51:50.532Z,11.66
2022-09-25T02:54:03.466Z,11.80
2022-09-25T02:56:13.924Z,11.88
2022-09-25T02:58:20.265Z,11.70
2022-09-25T03:00:23.964Z,10.96
2022-09-25T03:02:30.382Z,10.83
2022-09-25T03:04:38.186Z,11.85
2022-09-25T03:06:41.597Z,11.88
2022-09-25T03:08:49.351Z,11.74
2022-09-25T03:10:52.142Z,11.75
2022-09-25T03:12:54.851Z,11.67
2022-09-25T03:14:57.589Z,11.75
2022-09-25T03:17:03.687Z,11.82
2022-09-25T03:19:08.624Z,11.89
2022-09-25T03:21:11.356Z,11.91
2022-09-25T03:23:14.368Z,11.94
2022-09-25T03:25:17.683Z,11.93
2022-09-25T03:27:21.788Z,11.96
2022-09-25T03:29:24.533Z,11.98
2022-09-25T03:31:27.661Z,11.96
2022-09-25T03:33:35.724Z,11.56
2022-09-25T03:35:40.785Z,10.62
2022-09-25T03:37:43.481Z,11.95
2022-09-25T03:39:46.253Z,11.99
2022-09-25T03:41:49.013Z,12.01
2022-09-25T03:43:53.861Z,12.01
2022-09-25T03:45:56.611Z,12.00
2022-09-25T03:47:59.366Z,5.21
2022-09-25T03:50:02.087Z,11.95
2022-09-25T03:52:06.127Z,12.01
2022-09-25T03:54:09.039Z,12.06
2022-09-25T03:56:14.863Z,12.10
2022-09-25T03:58:19.991Z,11.84
2022-09-25T04:00:24.036Z,11.86
2022-09-25T04:02:26.807Z,11.88
2022-09-25T04:04:30.022Z,11.95
2022-09-25T04:06:32.754Z,11.92
2022-09-25T04:08:38.161Z,11.83
2022-09-25T04:10:40.858Z,11.67
2022-09-25T04:12:43.717Z,11.59
2022-09-25T04:14:46.869Z,11.31
2022-09-25T04:16:50.498Z,11.50
2022-09-25T04:18:53.345Z,11.57
2022-09-25T04:20:56.249Z,11.51
2022-09-25T04:22:59.146Z,11.00
2022-09-25T04:25:03.572Z,11.77
2022-09-25T04:27:06.528Z,11.85
2022-09-25T04:29:09.487Z,11.88
2022-09-25T04:31:12.485Z,1.26
2022-09-25T04:33:33.032Z,11.96
2022-09-25T04:35:35.948Z,10.40
2022-09-25T04:37:38.648Z,11.96
2022-09-25T04:39:41.564Z,11.97
2022-09-25T04:41:45.600Z,11.94
2022-09-25T04:43:48.741Z,11.89
2022-09-25T04:45:51.669Z,11.83
2022-09-25T04:47:55.083Z,6.99
2022-09-25T04:49:57.985Z,11.80
2022-09-25T04:52:00.736Z,11.79
2022-09-25T04:54:03.407Z,10.89
2022-09-25T04:56:13.960Z,11.65
2022-09-25T04:58:19.328Z,11.63
2022-09-25T05:00:24.153Z,11.37
2022-09-25T05:02:28.886Z,11.00
2022-09-25T05:04:32.142Z,8.08
2022-09-25T05:06:34.908Z,11.54
2022-09-25T05:08:37.602Z,11.56
2022-09-25T05:10:41.012Z,11.59
2022-09-25T05:12:43.905Z,11.53
2022-09-25T05:14:48.091Z,11.64
2022-09-25T05:16:51.379Z,11.49
2022-09-25T05:18:54.411Z,10.93
2022-09-25T05:20:58.026Z,11.50
2022-09-25T05:23:01.325Z,11.59
2022-09-25T05:25:04.365Z,12.03
2022-09-25T05:27:07.748Z,11.75
2022-09-25T05:29:10.907Z,11.67
2022-09-25T05:31:15.246Z,11.81
2022-09-25T05:33:19.042Z,11.67
2022-09-25T05:35:24.571Z,11.63
2022-09-25T05:37:27.287Z,11.74
2022-09-25T05:39:30.076Z,9.05
2022-09-25T05:41:34.780Z,11.85
2022-09-25T05:43:41.162Z,11.73
2022-09-25T05:45:43.960Z,11.94
2022-09-25T05:47:48.538Z,11.91
2022-09-25T05:49:51.257Z,11.90
2022-09-25T05:51:53.971Z,11.93
2022-09-25T05:53:57.282Z,11.99
2022-09-25T05:56:01.604Z,10.26
2022-09-25T05:58:06.423Z,11.98
2022-09-25T06:00:12.486Z,10.47
2022-09-25T06:02:15.301Z,12.00
2022-09-25T06:04:19.419Z,11.92
2022-09-25T06:06:26.675Z,11.88
2022-09-25T06:08:32.154Z,11.56
2022-09-25T06:10:35.527Z,11.91
2022-09-25T06:12:38.292Z,11.94
2022-09-25T06:14:41.172Z,11.97
2022-09-25T06:16:44.280Z,11.97
2022-09-25T06:18:48.111Z,12.00
2022-09-25T06:20:53.127Z,11.69
2022-09-25T06:22:56.835Z,11.77
2022-09-25T06:24:59.679Z,12.08
2022-09-25T06:27:02.376Z,12.10
2022-09-25T06:29:05.306Z,10.43
2022-09-25T06:31:08.384Z,12.13
2022-09-25T06:33:12.908Z,12.13
2022-09-25T06:35:15.738Z,12.10
2022-09-25T06:37:20.030Z,12.10
2022-09-25T06:39:22.881Z,12.12
2022-09-25T06:41:25.823Z,12.12
2022-09-25T06:43:31.313Z,12.14
2022-09-25T06:45:35.641Z,12.66
2022-09-25T06:47:38.706Z,12.58
2022-09-25T06:49:41.454Z,12.95
2022-09-25T06:51:44.207Z,12.86
2022-09-25T06:53:48.392Z,12.32
2022-09-25T06:55:58.891Z,10.80
2022-09-25T06:58:01.813Z,11.44
2022-09-25T07:00:05.483Z,12.51
2022-09-25T07:02:23.677Z,12.56
2022-09-25T07:04:26.749Z,12.52
2022-09-25T07:06:31.657Z,12.51
2022-09-25T07:08:34.731Z,12.45
2022-09-25T07:10:41.679Z,12.09
2022-09-25T07:12:47.977Z,12.29
2022-09-25T07:14:50.710Z,12.30
2022-09-25T07:16:53.510Z,12.36
2022-09-25T07:18:59.635Z,12.45
2022-09-25T07:21:03.859Z,12.49
2022-09-25T07:23:06.915Z,12.51
2022-09-25T07:25:12.841Z,12.59
2022-09-25T07:27:16.946Z,12.67
2022-09-25T07:29:20.232Z,12.69
2022-09-25T07:31:25.811Z,12.78
2022-09-25T07:33:28.616Z,12.79
2022-09-25T07:35:31.522Z,12.81
2022-09-25T07:37:34.220Z,12.85
2022-09-25T07:39:36.914Z,12.87
2022-09-25T07:41:40.060Z,12.94
2022-09-25T07:43:44.410Z,12.98
2022-09-25T07:45:52.319Z,10.12
2022-09-25T07:47:57.468Z,13.03
2022-09-25T07:50:00.400Z,12.99
2022-09-25T07:52:03.681Z,13.01
2022-09-25T07:54:06.588Z,12.30
2022-09-25T07:56:10.260Z,6.71
2022-09-25T07:58:13.366Z,13.11
2022-09-25T08:00:18.377Z,13.15
2022-09-25T08:02:21.494Z,13.26
2022-09-25T08:04:24.339Z,13.30
2022-09-25T08:06:27.168Z,13.38
2022-09-25T08:08:30.784Z,13.35
2022-09-25T08:10:33.538Z,13.37
2022-09-25T08:12:37.018Z,13.38
2022-09-25T08:14:39.776Z,12.25
2022-09-25T08:16:44.066Z,13.35
2022-09-25T08:18:48.365Z,10.03
2022-09-25T08:20:52.459Z,13.53
2022-09-25T08:22:57.235Z,13.62
2022-09-25T08:25:02.149Z,13.68
2022-09-25T08:27:05.462Z,13.75
2022-09-25T08:29:09.325Z,12.50
2022-09-25T08:31:14.653Z,13.68
2022-09-25T08:33:19.135Z,13.63
2022-09-25T08:35:23.178Z,13.70
2022-09-25T08:37:25.863Z,9.62
2022-09-25T08:39:28.866Z,13.91
2022-09-25T08:41:34.300Z,13.90
2022-09-25T08:43:43.085Z,13.37
2022-09-25T08:46:05.358Z,13.81
2022-09-25T08:48:33.403Z,14.12
2022-09-25T08:50:38.268Z,14.12
2022-09-25T08:52:43.029Z,8.17
2022-09-25T08:54:46.200Z,14.15
2022-09-25T08:56:52.267Z,14.15
2022-09-25T08:59:00.929Z,11.64
2022-09-25T09:01:07.648Z,12.10
2022-09-25T09:03:12.643Z,14.20
2022-09-25T09:05:20.717Z,14.16
2022-09-25T09:07:30.639Z,14.15
2022-09-25T09:09:38.573Z,11.58
2022-09-25T09:11:45.215Z,14.03
2022-09-25T09:13:52.969Z,12.57
2022-09-25T09:16:00.310Z,13.99
2022-09-25T09:18:15.425Z,14.14
2022-09-25T09:20:20.068Z,14.28
2022-09-25T09:22:30.726Z,14.32
2022-09-25T09:24:49.241Z,14.43
2022-09-25T09:27:08.233Z,14.41
2022-09-25T09:29:26.103Z,13.94
2022-09-25T09:31:35.789Z,14.08
2022-09-25T09:33:51.535Z,14.25
2022-09-25T09:36:06.990Z,14.42
2022-09-25T09:38:20.342Z,14.50
2022-09-25T09:40:34.936Z,13.88
2022-09-25T09:42:47.160Z,13.64
2022-09-25T09:45:01.463Z,14.15
2022-09-25T09:47:13.792Z,14.02
2022-09-25T09:49:22.235Z,14.39
2022-09-25T09:51:31.931Z,14.59
2022-09-25T09:53:41.989Z,15.02
2022-09-25T09:55:48.560Z,14.83
2022-09-25T09:57:55.291Z,15.35
2022-09-25T10:00:05.250Z,15.23
2022-09-25T10:02:30.769Z,15.48
2022-09-25T10:04:39.271Z,15.34
2022-09-25T10:06:48.377Z,15.40
2022-09-25T10:08:52.706Z,15.43
2022-09-25T10:10:56.200Z,15.05
2022-09-25T10:13:05.643Z,14.97
2022-09-25T10:15:33.822Z,15.11
2022-09-25T10:17:37.955Z,14.82
2022-09-25T10:19:49.239Z,14.98
2022-09-25T10:21:58.547Z,14.77
2022-09-25T10:24:03.769Z,14.94
2022-09-25T10:26:24.921Z,14.58
2022-09-25T10:28:31.076Z,12.12
2022-09-25T10:30:34.109Z,15.07
2022-09-25T10:32:44.573Z,15.00
2022-09-25T10:34:53.672Z,14.87
2022-09-25T10:36:57.115Z,14.66
2022-09-25T10:39:24.172Z,15.07
2022-09-25T10:41:24.905Z,14.78
2022-09-25T10:43:27.971Z,14.88
2022-09-25T10:45:32.893Z,14.89
2022-09-25T10:47:54.066Z,15.32
2022-09-25T10:50:14.319Z,14.87
2022-09-25T10:52:19.795Z,15.49
2022-09-25T10:54:22.497Z,15.86
2022-09-25T10:56:35.983Z,16.14
2022-09-25T10:58:43.297Z,16.02
2022-09-25T11:00:57.797Z,15.75
2022-09-25T11:03:04.174Z,15.77
2022-09-25T11:05:15.647Z,13.66
2022-09-25T11:07:27.244Z,16.57
2022-09-25T11:09:32.420Z,16.02
2022-09-25T11:11:38.735Z,15.52
2022-09-25T11:13:47.189Z,14.05
2022-09-25T11:15:53.517Z,16.44
2022-09-25T11:17:58.581Z,16.58
2022-09-25T11:20:21.010Z,16.64
2022-09-25T11:22:29.165Z,16.32
2022-09-25T11:24:42.754Z,15.50
2022-09-25T11:26:55.163Z,16.61
2022-09-25T11:29:04.597Z,17.01
2022-09-25T11:31:15.502Z,16.71
2022-09-25T11:33:27.251Z,16.65
2022-09-25T11:35:42.741Z,16.87
2022-09-25T11:37:55.892Z,14.84
2022-09-25T11:40:24.122Z,15.88
2022-09-25T11:42:34.938Z,14.82
2022-09-25T11:44:43.430Z,16.20
2022-09-25T11:46:55.051Z,15.70
2022-09-25T11:49:12.230Z,15.47
2022-09-25T11:51:22.529Z,15.35
2022-09-25T11:53:34.721Z,15.12
2022-09-25T11:55:47.136Z,11.33
2022-09-25T11:58:05.936Z,15.08
2022-09-25T12:00:13.011Z,14.87
2022-09-25T12:02:30.096Z,14.92
2022-09-25T12:04:47.406Z,15.00
2022-09-25T12:07:04.313Z,14.82
2022-09-25T12:09:22.109Z,15.19
2022-09-25T12:11:31.725Z,15.21
2022-09-25T12:13:44.872Z,14.50
2022-09-25T12:16:01.318Z,14.57
2022-09-25T12:18:12.508Z,14.61
2022-09-25T12:20:23.777Z,12.96
2022-09-25T12:22:44.248Z,15.44
2022-09-25T12:25:00.851Z,16.05
2022-09-25T12:27:12.977Z,16.12
2022-09-25T12:29:30.078Z,15.81
2022-09-25T12:31:42.850Z,14.30
2022-09-25T12:33:52.460Z,17.13
2022-09-25T12:36:00.526Z,17.28
2022-09-25T12:38:09.806Z,17.46
2022-09-25T12:40:20.677Z,14.25
2022-09-25T12:42:31.428Z,17.47
2022-09-25T12:44:45.012Z,16.89
2022-09-25T12:46:55.365Z,16.43
2022-09-25T12:49:04.234Z,17.03
2022-09-25T12:51:15.823Z,17.01
2022-09-25T12:53:33.835Z,17.28
2022-09-25T12:55:43.334Z,17.17
2022-09-25T12:57:49.822Z,17.14
2022-09-25T12:59:59.116Z,17.16
2022-09-25T13:02:07.380Z,16.96
2022-09-25T13:04:35.503Z,16.78
2022-09-25T13:06:47.911Z,16.40
2022-09-25T13:08:58.292Z,16.65
2022-09-25T13:11:07.957Z,16.71
2022-09-25T13:13:13.431Z,16.58
2022-09-25T13:15:23.289Z,16.28
2022-09-25T13:17:26.139Z,16.46
2022-09-25T13:19:33.255Z,16.28
2022-09-25T13:21:39.482Z,15.05
2022-09-25T13:23:42.549Z,16.38
2022-09-25T13:25:48.559Z,16.21
2022-09-25T13:27:54.309Z,16.35
2022-09-25T13:29:59.829Z,16.18
2022-09-25T13:32:15.340Z,16.12
2022-09-25T13:34:22.194Z,16.45
2022-09-25T13:36:38.265Z,15.41
2022-09-25T13:39:00.677Z,15.81
2022-09-25T13:41:10.862Z,15.61
2022-09-25T13:43:20.947Z,17.49
2022-09-25T13:45:33.425Z,17.13
2022-09-25T13:48:07.140Z,16.75
2022-09-25T13:50:25.915Z,15.49
2022-09-25T13:52:33.314Z,16.47
2022-09-25T13:54:36.092Z,16.86
2022-09-25T13:56:49.553Z,17.07
2022-09-25T13:59:35.930Z,16.83
2022-09-25T14:01:40.420Z,13.22
2022-09-25T14:03:48.184Z,17.35
2022-09-25T14:05:51.048Z,17.65
2022-09-25T14:08:01.248Z,16.12
2022-09-25T14:10:05.651Z,16.99
2022-09-25T14:12:20.878Z,16.38
2022-09-25T14:14:30.309Z,17.08
2022-09-25T14:16:39.552Z,17.36
2022-09-25T14:18:54.191Z,16.83
2022-09-25T14:21:00.162Z,17.17
2022-09-25T14:23:07.720Z,17.09
2022-09-25T14:25:28.218Z,16.96
2022-09-25T14:27:31.157Z,15.93
2022-09-25T14:29:40.428Z,17.01
2022-09-25T14:31:51.032Z,16.88
2022-09-25T14:34:12.453Z,16.56
2022-09-25T14:36:25.956Z,16.79
2022-09-25T14:38:55.798Z,16.92
2022-09-25T14:41:21.477Z,17.42
2022-09-25T14:43:49.663Z,17.19
2022-09-25T14:46:01.614Z,16.66
2022-09-25T14:48:08.693Z,16.92
2022-09-25T14:50:21.456Z,17.08
2022-09-25T14:52:27.721Z,17.39
2022-09-25T14:54:36.451Z,17.19
2022-09-25T14:56:39.652Z,16.39
2022-09-25T14:58:51.000Z,16.94
2022-09-25T15:00:56.699Z,16.94
2022-09-25T15:02:59.970Z,6.58
2022-09-25T15:07:31.114Z,16.44
2022-09-25T15:09:37.918Z,16.31
2022-09-25T15:11:42.641Z,16.12
2022-09-25T15:13:46.036Z,12.74
2022-09-25T15:16:06.494Z,14.83
2022-09-25T15:18:14.506Z,16.67
2022-09-25T15:20:20.760Z,14.31
2022-09-25T15:22:25.683Z,15.69
2022-09-25T15:24:32.875Z,17.13
2022-09-25T15:26:44.557Z,11.10
2022-09-25T15:28:47.513Z,17.99
2022-09-25T15:30:57.700Z,17.17
2022-09-25T15:33:01.181Z,18.53
2022-09-25T15:35:18.386Z,16.70
2022-09-25T15:37:29.146Z,18.99
2022-09-25T15:39:41.825Z,19.83
2022-09-25T15:41:45.074Z,20.10
2022-09-25T15:43:47.938Z,20.60
2022-09-25T15:45:58.285Z,20.86
2022-09-25T15:48:02.645Z,19.05
2022-09-25T15:50:15.408Z,20.40
2022-09-25T15:52:25.058Z,20.57
2022-09-25T15:54:41.421Z,20.98
2022-09-25T15:56:47.792Z,18.22
2022-09-25T15:58:52.573Z,20.28
2022-09-25T16:01:16.207Z,19.93
2022-09-25T16:03:41.433Z,20.53
2022-09-25T16:05:47.165Z,21.06
2022-09-25T16:07:50.532Z,17.70
2022-09-25T16:09:57.163Z,18.08
2022-09-25T16:12:20.441Z,16.24
2022-09-25T16:14:30.277Z,17.73
2022-09-25T16:16:34.602Z,17.60
2022-09-25T16:18:40.933Z,15.56
2022-09-25T16:20:43.975Z,16.74
2022-09-25T16:22:49.254Z,16.89
2022-09-25T16:24:54.844Z,15.89
2022-09-25T16:26:59.683Z,16.44
2022-09-25T16:29:07.563Z,15.26
2022-09-25T16:31:11.398Z,15.98
2022-09-25T16:33:23.632Z,15.06
2022-09-25T16:35:57.441Z,15.47
2022-09-25T16:37:58.149Z,15.49
2022-09-25T16:40:39.202Z,15.07
2022-09-25T16:42:43.587Z,14.96
2022-09-25T16:44:47.289Z,15.08
2022-09-25T16:47:18.783Z,15.18
2022-09-25T16:49:21.644Z,13.51
2022-09-25T16:51:27.264Z,12.21
2022-09-25T16:53:30.454Z,14.64
2022-09-25T16:55:38.170Z,14.42
2022-09-25T16:57:46.009Z,11.94
2022-09-25T16:59:50.616Z,11.75
2022-09-25T17:01:56.189Z,14.55
2022-09-25T17:04:00.401Z,14.56
2022-09-25T17:06:03.117Z,14.04
2022-09-25T17:08:17.477Z,13.96
2022-09-25T17:10:22.591Z,12.86
2022-09-25T17:12:26.785Z,14.07
2022-09-25T17:14:29.651Z,14.27
2022-09-25T17:16:34.007Z,13.20
2022-09-25T17:18:37.566Z,13.74
2022-09-25T17:20:40.260Z,13.91
2022-09-25T17:22:42.990Z,13.96
2022-09-25T17:24:45.663Z,7.31
2022-09-25T17:26:48.877Z,13.16
2022-09-25T17:28:51.739Z,11.30
2022-09-25T17:30:55.308Z,13.97
2022-09-25T17:32:59.329Z,11.54
2022-09-25T17:35:02.106Z,13.79
2022-09-25T17:37:04.841Z,13.92
2022-09-25T17:39:07.633Z,14.03
2022-09-25T17:41:19.522Z,13.84
2022-09-25T17:43:22.386Z,13.77
2022-09-25T17:45:31.965Z,13.58
2022-09-25T17:47:34.623Z,13.58
2022-09-25T17:49:38.704Z,12.69
2022-09-25T17:51:41.845Z,13.33
2022-09-25T17:53:45.235Z,10.46
2022-09-25T17:55:53.385Z,8.71
2022-09-25T17:57:56.725Z,13.82
2022-09-25T17:59:59.411Z,13.89
2022-09-25T18:02:02.120Z,13.71
2022-09-25T18:04:18.162Z,13.40
2022-09-25T18:06:22.625Z,12.94
2022-09-25T18:08:25.424Z,13.54
2022-09-25T18:10:29.497Z,8.09
2022-09-25T18:12:32.186Z,13.60
2022-09-25T18:14:35.114Z,12.88
2022-09-25T18:16:37.828Z,13.36
2022-09-25T18:18:58.215Z,13.05
2022-09-25T18:21:18.491Z,12.59
2022-09-25T18:23:22.561Z,12.26
2022-09-25T18:25:26.025Z,13.26
2022-09-25T18:27:30.609Z,13.23
2022-09-25T18:29:36.271Z,13.13
2022-09-25T18:31:39.394Z,12.22
2022-09-25T18:33:47.169Z,13.11
2022-09-25T18:35:52.994Z,12.48
2022-09-25T18:37:58.929Z,12.87
2022-09-25T18:40:03.841Z,12.65
2022-09-25T18:42:07.296Z,12.59
2022-09-25T18:44:10.037Z,12.46
2022-09-25T18:46:13.103Z,12.48
2022-09-25T18:48:16.290Z,11.09
2022-09-25T18:50:20.853Z,12.51
2022-09-25T18:52:24.331Z,12.26
2022-09-25T18:54:27.124Z,9.07
2022-09-25T18:56:31.834Z,12.71
2022-09-25T18:58:35.159Z,12.81
2022-09-25T19:00:37.964Z,12.54
2022-09-25T19:02:42.713Z,12.55
2022-09-25T19:04:46.138Z,11.59
2022-09-25T19:06:49.350Z,12.28
2022-09-25T19:08:53.697Z,12.21
2022-09-25T19:11:01.117Z,12.22
2022-09-25T19:13:10.199Z,12.23
2022-09-25T19:15:14.013Z,10.70
2022-09-25T19:17:17.335Z,12.19
2022-09-25T19:19:20.304Z,12.38
2022-09-25T19:21:26.331Z,12.26
2022-09-25T19:23:29.056Z,11.90
2022-09-25T19:25:32.252Z,11.99
2022-09-25T19:27:35.048Z,11.34
2022-09-25T19:29:39.210Z,6.63
2022-09-25T19:31:42.129Z,6.69
2022-09-25T19:33:45.401Z,11.72
2022-09-25T19:35:48.322Z,11.92
2022-09-25T19:37:51.001Z,11.93
2022-09-25T19:40:11.347Z,11.98
2022-09-25T19:42:14.596Z,11.72
2022-09-25T19:44:18.386Z,10.50
2022-09-25T19:46:22.917Z,10.23
2022-09-25T19:48:25.761Z,11.59
2022-09-25T19:50:28.454Z,11.77
2022-09-25T19:52:31.147Z,11.67
2022-09-25T19:54:34.114Z,11.64
2022-09-25T19:56:40.517Z,10.49
2022-09-25T19:58:43.702Z,11.17
2022-09-25T20:00:48.049Z,8.95
2022-09-25T20:02:52.153Z,8.64
2022-09-25T20:04:54.983Z,11.32
2022-09-25T20:06:58.785Z,8.92
2022-09-25T20:09:01.981Z,10.45
2022-09-25T20:11:13.023Z,11.44
2022-09-25T20:13:15.721Z,11.73
2022-09-25T20:15:18.488Z,12.01
2022-09-25T20:17:21.227Z,11.85
2022-09-25T20:19:26.227Z,6.97
2022-09-25T20:21:31.611Z,9.67
2022-09-25T20:23:34.539Z,11.66
2022-09-25T20:25:37.542Z,7.87
2022-09-25T20:27:40.218Z,10.12
2022-09-25T20:29:43.117Z,11.68
2022-09-25T20:31:46.946Z,11.87
2022-09-25T20:33:49.949Z,11.72
2022-09-25T20:35:54.049Z,11.82
2022-09-25T20:37:56.730Z,12.07
2022-09-25T20:39:59.482Z,11.01
2022-09-25T20:42:02.188Z,11.76
2022-09-25T20:44:06.150Z,11.71
2022-09-25T20:46:12.455Z,11.06
2022-09-25T20:48:17.843Z,11.78
2022-09-25T20:50:21.286Z,10.67
2022-09-25T20:52:25.368Z,11.97
2022-09-25T20:54:29.588Z,12.12
2022-09-25T20:56:33.806Z,12.12
2022-09-25T20:58:39.230Z,12.20
2022-09-25T21:00:42.187Z,11.06
2022-09-25T21:02:44.981Z,12.04
2022-09-25T21:04:47.799Z,11.41
2022-09-25T21:06:50.535Z,12.21
2022-09-25T21:08:56.035Z,8.56
2022-09-25T21:10:59.700Z,12.17
2022-09-25T21:13:04.655Z,7.48
2022-09-25T21:15:08.212Z,12.05
2022-09-25T21:17:11.064Z,12.14
2022-09-25T21:19:15.247Z,12.20
2022-09-25T21:21:18.178Z,12.29
2022-09-25T21:23:21.203Z,12.10
2022-09-25T21:25:26.933Z,12.26
2022-09-25T21:27:30.653Z,12.15
2022-09-25T21:29:33.821Z,11.64
2022-09-25T21:31:38.524Z,11.55
2022-09-25T21:33:41.492Z,11.78
2022-09-25T21:35:47.900Z,11.97
2022-09-25T21:37:50.612Z,11.96
2022-09-25T21:39:53.352Z,11.65
2022-09-25T21:41:57.449Z,10.86
2022-09-25T21:44:02.982Z,11.89
2022-09-25T21:46:08.716Z,10.73
2022-09-25T21:48:11.935Z,11.98
2022-09-25T21:50:14.981Z,11.83
2022-09-25T21:52:17.708Z,9.60
2022-09-25T21:54:20.782Z,10.45
2022-09-25T21:56:25.359Z,10.99
2022-09-25T21:58:29.936Z,11.87
2022-09-25T22:00:33.366Z,11.13
2022-09-25T22:02:36.147Z,12.01
2022-09-25T22:04:38.902Z,12.03
2022-09-25T22:06:44.332Z,12.08
2022-09-25T22:08:49.292Z,11.02
2022-09-25T22:10:55.859Z,7.82
2022-09-25T22:12:59.084Z,11.56
2022-09-25T22:15:03.303Z,11.72
2022-09-25T22:17:06.236Z,9.59
2022-09-25T22:19:12.256Z,10.97
2022-09-25T22:21:17.555Z,12.04
2022-09-25T22:23:21.290Z,12.10
2022-09-25T22:25:24.395Z,7.79
2022-09-25T22:27:27.071Z,12.16
2022-09-25T22:29:29.868Z,9.33
2022-09-25T22:31:35.857Z,12.13
2022-09-25T22:33:39.039Z,12.17
2022-09-25T22:35:41.741Z,12.23
2022-09-25T22:37:44.452Z,8.82
2022-09-25T22:39:47.192Z,12.26
2022-09-25T22:41:51.929Z,12.11
2022-09-25T22:43:58.489Z,11.20
2022-09-25T22:46:03.494Z,9.74
2022-09-25T22:48:07.678Z,12.35
2022-09-25T22:50:11.368Z,12.35
2022-09-25T22:52:14.220Z,12.35
2022-09-25T22:54:16.980Z,10.88
2022-09-25T22:56:21.940Z,9.92
2022-09-25T22:58:24.627Z,6.58
2022-09-25T23:00:27.383Z,10.77
2022-09-25T23:02:30.084Z,12.28
2022-09-25T23:04:34.158Z,9.30
2022-09-25T23:06:37.629Z,12.00
2022-09-25T23:08:40.548Z,12.18
2022-09-25T23:11:06.072Z,12.19
2022-09-25T23:13:06.791Z,12.08
2022-09-25T23:15:10.718Z,12.18
2022-09-25T23:17:13.415Z,12.26
2022-09-25T23:19:16.345Z,10.99
2022-09-25T23:21:20.424Z,12.27
2022-09-25T23:23:23.057Z,12.26
2022-09-25T23:25:25.797Z,12.24
2022-09-25T23:27:28.480Z,12.25
2022-09-25T23:29:31.475Z,11.57
2022-09-25T23:31:34.448Z,12.09
2022-09-25T23:33:37.980Z,12.06
2022-09-25T23:35:40.661Z,10.28
2022-09-25T23:37:44.675Z,7.42
2022-09-25T23:39:47.351Z,11.81
2022-09-25T23:41:50.047Z,11.88
2022-09-25T23:43:54.525Z,11.88
2022-09-25T23:45:57.232Z,11.83
2022-09-25T23:47:59.946Z,11.85
2022-09-25T23:50:04.813Z,11.81
2022-09-25T23:52:08.054Z,11.45
2022-09-25T23:54:12.778Z,11.76
2022-09-25T23:56:17.088Z,11.71
2022-09-25T23:58:19.721Z,11.61
